sensor_id;sensor_type;location;lat;lon;timestamp;P1;durP1;ratioP1;P2;durP2;ratioP2
31210;SDS011;17836;50.948;3.946;2022-12-11T00:01:32;30.57;;;18.70;;
31210;SDS011;17836;50.948;3.946;2022-12-11T00:03:57;29.83;;;17.48;;
31210;SDS011;17836;50.948;3.946;2022-12-11T00:06:22;28.73;;;17.63;;
31210;SDS011;17836;50.948;3.946;2022-12-11T00:08:52;27.50;;;17.23;;
31210;SDS011;17836;50.948;3.946;2022-12-11T00:11:18;30.67;;;18.15;;
31210;SDS011;17836;50.948;3.946;2022-12-11T00:13:45;28.77;;;17.13;;
31210;SDS011;17836;50.948;3.946;2022-12-11T00:16:11;29.83;;;17.20;;
31210;SDS011;17836;50.948;3.946;2022-12-11T00:18:36;28.00;;;17.10;;
31210;SDS011;17836;50.948;3.946;2022-12-11T00:21:05;28.02;;;16.52;;
31210;SDS011;17836;50.948;3.946;2022-12-11T00:23:30;29.23;;;17.25;;
31210;SDS011;17836;50.948;3.946;2022-12-11T00:25:56;32.90;;;17.85;;
31210;SDS011;17836;50.948;3.946;2022-12-11T00:28:21;31.98;;;17.58;;
31210;SDS011;17836;50.948;3.946;2022-12-11T00:30:47;35.42;;;19.25;;
31210;SDS011;17836;50.948;3.946;2022-12-11T00:33:13;34.23;;;17.43;;
31210;SDS011;17836;50.948;3.946;2022-12-11T00:35:39;32.20;;;18.15;;
31210;SDS011;17836;50.948;3.946;2022-12-11T00:38:04;33.08;;;19.10;;
31210;SDS011;17836;50.948;3.946;2022-12-11T00:40:32;32.97;;;20.03;;
31210;SDS011;17836;50.948;3.946;2022-12-11T00:42:57;30.30;;;17.73;;
31210;SDS011;17836;50.948;3.946;2022-12-11T00:45:23;30.10;;;18.45;;
31210;SDS011;17836;50.948;3.946;2022-12-11T00:47:48;29.80;;;17.80;;
31210;SDS011;17836;50.948;3.946;2022-12-11T00:50:13;31.80;;;18.10;;
31210;SDS011;17836;50.948;3.946;2022-12-11T00:52:39;32.38;;;17.83;;
31210;SDS011;17836;50.948;3.946;2022-12-11T00:55:04;28.30;;;16.60;;
31210;SDS011;17836;50.948;3.946;2022-12-11T00:57:30;26.85;;;16.80;;
31210;SDS011;17836;50.948;3.946;2022-12-11T00:59:55;33.05;;;17.55;;
31210;SDS011;17836;50.948;3.946;2022-12-11T01:02:20;27.47;;;16.23;;
31210;SDS011;17836;50.948;3.946;2022-12-11T01:04:46;28.10;;;16.83;;
31210;SDS011;17836;50.948;3.946;2022-12-11T01:07:11;30.83;;;17.50;;
31210;SDS011;17836;50.948;3.946;2022-12-11T01:09:36;33.73;;;18.63;;
31210;SDS011;17836;50.948;3.946;2022-12-11T01:12:20;32.88;;;19.38;;
31210;SDS011;17836;50.948;3.946;2022-12-11T01:14:47;36.85;;;18.90;;
31210;SDS011;17836;50.948;3.946;2022-12-11T01:17:13;36.58;;;17.58;;
31210;SDS011;17836;50.948;3.946;2022-12-11T01:19:39;30.73;;;17.63;;
31210;SDS011;17836;50.948;3.946;2022-12-11T01:22:04;30.63;;;17.73;;
31210;SDS011;17836;50.948;3.946;2022-12-11T01:24:29;29.48;;;17.67;;
31210;SDS011;17836;50.948;3.946;2022-12-11T01:26:57;32.38;;;17.35;;
31210;SDS011;17836;50.948;3.946;2022-12-11T01:29:22;35.25;;;19.23;;
31210;SDS011;17836;50.948;3.946;2022-12-11T01:31:48;32.17;;;17.85;;
31210;SDS011;17836;50.948;3.946;2022-12-11T01:34:13;33.20;;;17.97;;
31210;SDS011;17836;50.948;3.946;2022-12-11T01:36:38;32.92;;;18.00;;
31210;SDS011;17836;50.948;3.946;2022-12-11T01:39:04;31.42;;;18.00;;
31210;SDS011;17836;50.948;3.946;2022-12-11T01:41:29;33.33;;;19.17;;
31210;SDS011;17836;50.948;3.946;2022-12-11T01:43:59;29.73;;;17.10;;
31210;SDS011;17836;50.948;3.946;2022-12-11T01:46:25;34.50;;;17.63;;
31210;SDS011;17836;50.948;3.946;2022-12-11T01:48:51;37.22;;;18.33;;
31210;SDS011;17836;50.948;3.946;2022-12-11T01:51:16;30.83;;;17.70;;
31210;SDS011;17836;50.948;3.946;2022-12-11T01:53:42;33.30;;;19.00;;
31210;SDS011;17836;50.948;3.946;2022-12-11T01:56:09;31.65;;;18.52;;
31210;SDS011;17836;50.948;3.946;2022-12-11T01:58:49;32.55;;;17.55;;
31210;SDS011;17836;50.948;3.946;2022-12-11T02:01:18;34.47;;;19.75;;
31210;SDS011;17836;50.948;3.946;2022-12-11T02:03:44;33.75;;;19.85;;
31210;SDS011;17836;50.948;3.946;2022-12-11T02:08:54;36.60;;;19.85;;
31210;SDS011;17836;50.948;3.946;2022-12-11T02:11:20;36.13;;;20.20;;
31210;SDS011;17836;50.948;3.946;2022-12-11T02:13:56;36.20;;;19.52;;
31210;SDS011;17836;50.948;3.946;2022-12-11T02:16:25;40.75;;;20.27;;
31210;SDS011;17836;50.948;3.946;2022-12-11T02:21:42;37.88;;;20.25;;
31210;SDS011;17836;50.948;3.946;2022-12-11T02:26:44;35.33;;;17.42;;
31210;SDS011;17836;50.948;3.946;2022-12-11T02:29:12;26.38;;;15.80;;
31210;SDS011;17836;50.948;3.946;2022-12-11T02:31:53;29.58;;;17.58;;
31210;SDS011;17836;50.948;3.946;2022-12-11T02:34:22;30.15;;;17.27;;
31210;SDS011;17836;50.948;3.946;2022-12-11T02:36:51;28.92;;;17.33;;
31210;SDS011;17836;50.948;3.946;2022-12-11T02:39:18;35.75;;;17.40;;
31210;SDS011;17836;50.948;3.946;2022-12-11T02:41:47;30.60;;;17.23;;
31210;SDS011;17836;50.948;3.946;2022-12-11T02:44:13;30.83;;;17.80;;
31210;SDS011;17836;50.948;3.946;2022-12-11T02:46:39;34.65;;;17.52;;
31210;SDS011;17836;50.948;3.946;2022-12-11T02:49:05;35.08;;;19.42;;
31210;SDS011;17836;50.948;3.946;2022-12-11T02:51:32;31.92;;;19.08;;
31210;SDS011;17836;50.948;3.946;2022-12-11T02:53:58;32.30;;;18.92;;
31210;SDS011;17836;50.948;3.946;2022-12-11T02:56:35;33.58;;;18.25;;
31210;SDS011;17836;50.948;3.946;2022-12-11T02:59:04;38.25;;;19.50;;
31210;SDS011;17836;50.948;3.946;2022-12-11T03:01:31;35.50;;;18.30;;
31210;SDS011;17836;50.948;3.946;2022-12-11T03:03:56;31.38;;;18.70;;
31210;SDS011;17836;50.948;3.946;2022-12-11T03:06:23;29.20;;;17.08;;
31210;SDS011;17836;50.948;3.946;2022-12-11T03:08:50;36.00;;;19.40;;
31210;SDS011;17836;50.948;3.946;2022-12-11T03:11:16;36.33;;;18.27;;
31210;SDS011;17836;50.948;3.946;2022-12-11T03:13:43;33.60;;;18.23;;
31210;SDS011;17836;50.948;3.946;2022-12-11T03:16:11;35.78;;;18.70;;
31210;SDS011;17836;50.948;3.946;2022-12-11T03:21:14;30.02;;;17.67;;
31210;SDS011;17836;50.948;3.946;2022-12-11T03:26:11;35.58;;;19.65;;
31210;SDS011;17836;50.948;3.946;2022-12-11T03:31:08;35.17;;;18.42;;
31210;SDS011;17836;50.948;3.946;2022-12-11T03:33:42;37.55;;;20.20;;
31210;SDS011;17836;50.948;3.946;2022-12-11T03:36:10;31.25;;;18.02;;
31210;SDS011;17836;50.948;3.946;2022-12-11T03:38:43;31.58;;;18.08;;
31210;SDS011;17836;50.948;3.946;2022-12-11T03:41:10;36.78;;;19.40;;
31210;SDS011;17836;50.948;3.946;2022-12-11T03:43:36;32.22;;;17.50;;
31210;SDS011;17836;50.948;3.946;2022-12-11T03:46:02;35.20;;;19.50;;
31210;SDS011;17836;50.948;3.946;2022-12-11T03:48:32;31.08;;;17.77;;
31210;SDS011;17836;50.948;3.946;2022-12-11T03:50:59;33.28;;;18.67;;
31210;SDS011;17836;50.948;3.946;2022-12-11T03:53:26;38.28;;;19.30;;
31210;SDS011;17836;50.948;3.946;2022-12-11T03:55:51;37.33;;;17.45;;
31210;SDS011;17836;50.948;3.946;2022-12-11T03:58:18;35.20;;;18.98;;
31210;SDS011;17836;50.948;3.946;2022-12-11T04:00:43;34.83;;;19.07;;
31210;SDS011;17836;50.948;3.946;2022-12-11T04:03:08;32.93;;;18.70;;
31210;SDS011;17836;50.948;3.946;2022-12-11T04:05:41;37.42;;;17.73;;
31210;SDS011;17836;50.948;3.946;2022-12-11T04:08:06;31.65;;;18.80;;
31210;SDS011;17836;50.948;3.946;2022-12-11T04:10:31;33.50;;;19.30;;
31210;SDS011;17836;50.948;3.946;2022-12-11T04:12:57;34.50;;;17.65;;
31210;SDS011;17836;50.948;3.946;2022-12-11T04:15:22;40.17;;;20.23;;
31210;SDS011;17836;50.948;3.946;2022-12-11T04:17:47;37.23;;;20.53;;
31210;SDS011;17836;50.948;3.946;2022-12-11T04:20:31;34.75;;;19.10;;
31210;SDS011;17836;50.948;3.946;2022-12-11T04:23:16;36.63;;;19.75;;
31210;SDS011;17836;50.948;3.946;2022-12-11T04:26:07;37.17;;;20.60;;
31210;SDS011;17836;50.948;3.946;2022-12-11T04:28:33;36.60;;;20.42;;
31210;SDS011;17836;50.948;3.946;2022-12-11T04:30:59;44.20;;;21.83;;
31210;SDS011;17836;50.948;3.946;2022-12-11T04:33:24;35.93;;;21.33;;
31210;SDS011;17836;50.948;3.946;2022-12-11T04:35:49;38.90;;;20.67;;
31210;SDS011;17836;50.948;3.946;2022-12-11T04:38:15;36.80;;;21.05;;
31210;SDS011;17836;50.948;3.946;2022-12-11T04:40:41;37.75;;;20.90;;
31210;SDS011;17836;50.948;3.946;2022-12-11T04:43:06;40.13;;;21.13;;
31210;SDS011;17836;50.948;3.946;2022-12-11T04:45:31;34.63;;;20.40;;
31210;SDS011;17836;50.948;3.946;2022-12-11T04:47:56;39.50;;;21.88;;
31210;SDS011;17836;50.948;3.946;2022-12-11T04:50:22;34.73;;;20.57;;
31210;SDS011;17836;50.948;3.946;2022-12-11T04:52:48;38.80;;;21.58;;
31210;SDS011;17836;50.948;3.946;2022-12-11T04:55:13;35.77;;;19.93;;
31210;SDS011;17836;50.948;3.946;2022-12-11T04:57:38;36.95;;;20.90;;
31210;SDS011;17836;50.948;3.946;2022-12-11T05:00:06;36.15;;;20.70;;
31210;SDS011;17836;50.948;3.946;2022-12-11T05:02:36;36.47;;;20.83;;
31210;SDS011;17836;50.948;3.946;2022-12-11T05:05:06;36.40;;;22.02;;
31210;SDS011;17836;50.948;3.946;2022-12-11T05:07:33;35.42;;;20.70;;
31210;SDS011;17836;50.948;3.946;2022-12-11T05:09:59;38.83;;;22.58;;
31210;SDS011;17836;50.948;3.946;2022-12-11T05:12:24;40.78;;;21.58;;
31210;SDS011;17836;50.948;3.946;2022-12-11T05:14:50;38.10;;;21.45;;
31210;SDS011;17836;50.948;3.946;2022-12-11T05:17:16;36.75;;;21.15;;
31210;SDS011;17836;50.948;3.946;2022-12-11T05:19:41;41.07;;;22.13;;
31210;SDS011;17836;50.948;3.946;2022-12-11T05:22:06;43.95;;;24.33;;
31210;SDS011;17836;50.948;3.946;2022-12-11T05:24:32;41.37;;;22.90;;
31210;SDS011;17836;50.948;3.946;2022-12-11T05:26:57;45.45;;;23.83;;
31210;SDS011;17836;50.948;3.946;2022-12-11T05:29:22;44.33;;;23.25;;
31210;SDS011;17836;50.948;3.946;2022-12-11T05:31:48;41.78;;;24.05;;
31210;SDS011;17836;50.948;3.946;2022-12-11T05:34:14;42.97;;;25.05;;
31210;SDS011;17836;50.948;3.946;2022-12-11T05:36:39;48.85;;;25.42;;
31210;SDS011;17836;50.948;3.946;2022-12-11T05:39:05;48.85;;;24.20;;
31210;SDS011;17836;50.948;3.946;2022-12-11T05:41:30;50.50;;;26.13;;
31210;SDS011;17836;50.948;3.946;2022-12-11T05:43:56;43.47;;;24.48;;
31210;SDS011;17836;50.948;3.946;2022-12-11T05:46:22;48.17;;;24.50;;
31210;SDS011;17836;50.948;3.946;2022-12-11T05:48:50;46.47;;;25.73;;
31210;SDS011;17836;50.948;3.946;2022-12-11T05:51:16;51.78;;;26.95;;
31210;SDS011;17836;50.948;3.946;2022-12-11T05:53:42;52.38;;;27.55;;
31210;SDS011;17836;50.948;3.946;2022-12-11T05:56:27;47.40;;;25.30;;
31210;SDS011;17836;50.948;3.946;2022-12-11T05:58:53;50.20;;;25.92;;
31210;SDS011;17836;50.948;3.946;2022-12-11T06:01:23;51.78;;;27.48;;
31210;SDS011;17836;50.948;3.946;2022-12-11T06:03:49;51.40;;;25.88;;
31210;SDS011;17836;50.948;3.946;2022-12-11T06:06:15;51.00;;;26.90;;
31210;SDS011;17836;50.948;3.946;2022-12-11T06:08:40;50.42;;;26.20;;
31210;SDS011;17836;50.948;3.946;2022-12-11T06:11:06;54.63;;;27.63;;
31210;SDS011;17836;50.948;3.946;2022-12-11T06:13:31;55.47;;;27.08;;
31210;SDS011;17836;50.948;3.946;2022-12-11T06:16:01;50.72;;;27.38;;
31210;SDS011;17836;50.948;3.946;2022-12-11T06:18:26;51.97;;;28.23;;
31210;SDS011;17836;50.948;3.946;2022-12-11T06:20:52;49.20;;;27.52;;
31210;SDS011;17836;50.948;3.946;2022-12-11T06:23:17;51.73;;;27.30;;
31210;SDS011;17836;50.948;3.946;2022-12-11T06:25:42;59.67;;;29.05;;
31210;SDS011;17836;50.948;3.946;2022-12-11T06:28:08;54.90;;;28.40;;
31210;SDS011;17836;50.948;3.946;2022-12-11T06:30:33;48.58;;;26.27;;
31210;SDS011;17836;50.948;3.946;2022-12-11T06:32:58;49.53;;;25.33;;
31210;SDS011;17836;50.948;3.946;2022-12-11T06:35:24;63.40;;;30.05;;
31210;SDS011;17836;50.948;3.946;2022-12-11T06:37:49;50.55;;;25.67;;
31210;SDS011;17836;50.948;3.946;2022-12-11T06:40:14;55.00;;;26.65;;
31210;SDS011;17836;50.948;3.946;2022-12-11T06:42:40;53.70;;;27.75;;
31210;SDS011;17836;50.948;3.946;2022-12-11T06:45:05;57.55;;;27.95;;
31210;SDS011;17836;50.948;3.946;2022-12-11T06:47:31;50.92;;;27.52;;
31210;SDS011;17836;50.948;3.946;2022-12-11T06:49:57;51.90;;;26.25;;
31210;SDS011;17836;50.948;3.946;2022-12-11T06:52:23;53.73;;;26.57;;
31210;SDS011;17836;50.948;3.946;2022-12-11T06:54:48;52.75;;;28.55;;
31210;SDS011;17836;50.948;3.946;2022-12-11T06:57:14;49.70;;;27.20;;
31210;SDS011;17836;50.948;3.946;2022-12-11T06:59:39;50.83;;;27.02;;
31210;SDS011;17836;50.948;3.946;2022-12-11T07:02:05;49.53;;;25.58;;
31210;SDS011;17836;50.948;3.946;2022-12-11T07:04:31;43.53;;;24.13;;
31210;SDS011;17836;50.948;3.946;2022-12-11T07:06:56;51.30;;;25.23;;
31210;SDS011;17836;50.948;3.946;2022-12-11T07:09:23;49.08;;;24.23;;
31210;SDS011;17836;50.948;3.946;2022-12-11T07:11:49;47.63;;;24.13;;
31210;SDS011;17836;50.948;3.946;2022-12-11T07:14:14;47.10;;;24.15;;
31210;SDS011;17836;50.948;3.946;2022-12-11T07:16:40;47.33;;;23.85;;
31210;SDS011;17836;50.948;3.946;2022-12-11T07:19:05;50.20;;;24.95;;
31210;SDS011;17836;50.948;3.946;2022-12-11T07:21:30;45.17;;;23.17;;
31210;SDS011;17836;50.948;3.946;2022-12-11T07:23:56;47.17;;;24.92;;
31210;SDS011;17836;50.948;3.946;2022-12-11T07:26:21;44.95;;;23.85;;
31210;SDS011;17836;50.948;3.946;2022-12-11T07:28:47;42.25;;;22.85;;
31210;SDS011;17836;50.948;3.946;2022-12-11T07:31:14;46.40;;;24.85;;
31210;SDS011;17836;50.948;3.946;2022-12-11T07:33:40;43.97;;;23.63;;
31210;SDS011;17836;50.948;3.946;2022-12-11T07:36:07;50.00;;;25.45;;
31210;SDS011;17836;50.948;3.946;2022-12-11T07:38:33;42.33;;;22.25;;
31210;SDS011;17836;50.948;3.946;2022-12-11T07:40:59;49.95;;;25.98;;
31210;SDS011;17836;50.948;3.946;2022-12-11T07:43:24;52.13;;;23.80;;
31210;SDS011;17836;50.948;3.946;2022-12-11T07:45:50;42.30;;;22.77;;
31210;SDS011;17836;50.948;3.946;2022-12-11T07:48:16;44.53;;;24.05;;
31210;SDS011;17836;50.948;3.946;2022-12-11T07:50:41;44.92;;;23.45;;
31210;SDS011;17836;50.948;3.946;2022-12-11T07:53:07;41.90;;;23.77;;
31210;SDS011;17836;50.948;3.946;2022-12-11T07:55:32;43.73;;;22.47;;
31210;SDS011;17836;50.948;3.946;2022-12-11T07:57:57;47.87;;;24.10;;
31210;SDS011;17836;50.948;3.946;2022-12-11T08:00:22;42.95;;;23.15;;
31210;SDS011;17836;50.948;3.946;2022-12-11T08:02:48;43.35;;;24.10;;
31210;SDS011;17836;50.948;3.946;2022-12-11T08:05:13;43.63;;;24.63;;
31210;SDS011;17836;50.948;3.946;2022-12-11T08:07:38;48.30;;;25.33;;
31210;SDS011;17836;50.948;3.946;2022-12-11T08:10:04;50.80;;;26.80;;
31210;SDS011;17836;50.948;3.946;2022-12-11T08:12:30;54.10;;;26.85;;
31210;SDS011;17836;50.948;3.946;2022-12-11T08:14:56;50.03;;;24.35;;
31210;SDS011;17836;50.948;3.946;2022-12-11T08:17:21;51.92;;;23.25;;
31210;SDS011;17836;50.948;3.946;2022-12-11T08:19:46;44.33;;;24.07;;
31210;SDS011;17836;50.948;3.946;2022-12-11T08:22:11;48.40;;;22.45;;
31210;SDS011;17836;50.948;3.946;2022-12-11T08:24:38;44.25;;;23.17;;
31210;SDS011;17836;50.948;3.946;2022-12-11T08:27:03;52.70;;;26.00;;
31210;SDS011;17836;50.948;3.946;2022-12-11T08:29:29;51.45;;;24.33;;
31210;SDS011;17836;50.948;3.946;2022-12-11T08:31:55;51.28;;;24.67;;
31210;SDS011;17836;50.948;3.946;2022-12-11T08:34:20;52.05;;;23.88;;
31210;SDS011;17836;50.948;3.946;2022-12-11T08:36:46;47.03;;;23.40;;
31210;SDS011;17836;50.948;3.946;2022-12-11T08:39:11;41.53;;;22.35;;
31210;SDS011;17836;50.948;3.946;2022-12-11T08:41:37;48.40;;;23.63;;
31210;SDS011;17836;50.948;3.946;2022-12-11T08:44:02;43.20;;;21.58;;
31210;SDS011;17836;50.948;3.946;2022-12-11T08:46:29;48.60;;;22.73;;
31210;SDS011;17836;50.948;3.946;2022-12-11T08:48:55;42.40;;;21.13;;
31210;SDS011;17836;50.948;3.946;2022-12-11T08:51:21;51.78;;;24.25;;
31210;SDS011;17836;50.948;3.946;2022-12-11T08:53:47;50.38;;;22.52;;
31210;SDS011;17836;50.948;3.946;2022-12-11T08:56:15;44.38;;;22.50;;
31210;SDS011;17836;50.948;3.946;2022-12-11T08:58:41;51.92;;;23.95;;
31210;SDS011;17836;50.948;3.946;2022-12-11T09:01:07;44.38;;;22.67;;
31210;SDS011;17836;50.948;3.946;2022-12-11T09:03:33;44.95;;;23.38;;
31210;SDS011;17836;50.948;3.946;2022-12-11T09:05:58;49.33;;;23.15;;
31210;SDS011;17836;50.948;3.946;2022-12-11T09:08:23;53.63;;;24.60;;
31210;SDS011;17836;50.948;3.946;2022-12-11T09:10:49;58.05;;;25.75;;
31210;SDS011;17836;50.948;3.946;2022-12-11T09:13:15;58.47;;;27.35;;
31210;SDS011;17836;50.948;3.946;2022-12-11T09:15:41;51.42;;;23.50;;
31210;SDS011;17836;50.948;3.946;2022-12-11T09:18:06;50.65;;;23.95;;
31210;SDS011;17836;50.948;3.946;2022-12-11T09:20:32;49.45;;;23.52;;
31210;SDS011;17836;50.948;3.946;2022-12-11T09:22:57;51.08;;;25.65;;
31210;SDS011;17836;50.948;3.946;2022-12-11T09:25:26;46.13;;;22.42;;
31210;SDS011;17836;50.948;3.946;2022-12-11T09:27:53;54.25;;;23.80;;
31210;SDS011;17836;50.948;3.946;2022-12-11T09:30:18;48.27;;;23.20;;
31210;SDS011;17836;50.948;3.946;2022-12-11T09:32:44;42.45;;;22.15;;
31210;SDS011;17836;50.948;3.946;2022-12-11T09:35:10;51.55;;;25.60;;
31210;SDS011;17836;50.948;3.946;2022-12-11T09:37:35;44.03;;;22.60;;
31210;SDS011;17836;50.948;3.946;2022-12-11T09:40:01;46.27;;;22.27;;
31210;SDS011;17836;50.948;3.946;2022-12-11T09:42:30;46.97;;;21.90;;
31210;SDS011;17836;50.948;3.946;2022-12-11T09:44:57;53.67;;;25.37;;
31210;SDS011;17836;50.948;3.946;2022-12-11T09:47:26;50.83;;;23.40;;
31210;SDS011;17836;50.948;3.946;2022-12-11T09:49:57;53.90;;;25.05;;
31210;SDS011;17836;50.948;3.946;2022-12-11T09:54:59;39.63;;;21.42;;
31210;SDS011;17836;50.948;3.946;2022-12-11T10:02:39;47.92;;;23.02;;
31210;SDS011;17836;50.948;3.946;2022-12-11T10:05:16;47.53;;;22.53;;
31210;SDS011;17836;50.948;3.946;2022-12-11T10:10:31;45.85;;;22.58;;
31210;SDS011;17836;50.948;3.946;2022-12-11T10:17:56;43.33;;;20.83;;
31210;SDS011;17836;50.948;3.946;2022-12-11T10:20:28;41.90;;;21.20;;
31210;SDS011;17836;50.948;3.946;2022-12-11T10:22:55;38.28;;;20.65;;
31210;SDS011;17836;50.948;3.946;2022-12-11T10:25:28;37.90;;;21.20;;
31210;SDS011;17836;50.948;3.946;2022-12-11T10:27:55;40.47;;;20.75;;
31210;SDS011;17836;50.948;3.946;2022-12-11T10:30:24;44.17;;;22.85;;
31210;SDS011;17836;50.948;3.946;2022-12-11T10:35:18;41.90;;;21.10;;
31210;SDS011;17836;50.948;3.946;2022-12-11T10:37:44;37.88;;;19.67;;
31210;SDS011;17836;50.948;3.946;2022-12-11T10:40:11;36.65;;;19.10;;
31210;SDS011;17836;50.948;3.946;2022-12-11T10:42:37;37.83;;;19.75;;
31210;SDS011;17836;50.948;3.946;2022-12-11T10:45:03;39.43;;;20.27;;
31210;SDS011;17836;50.948;3.946;2022-12-11T10:47:28;40.75;;;20.13;;
31210;SDS011;17836;50.948;3.946;2022-12-11T10:50:00;49.35;;;24.13;;
31210;SDS011;17836;50.948;3.946;2022-12-11T10:55:36;42.20;;;20.63;;
31210;SDS011;17836;50.948;3.946;2022-12-11T10:57:41;37.65;;;19.75;;
31210;SDS011;17836;50.948;3.946;2022-12-11T11:00:07;33.60;;;17.80;;
31210;SDS011;17836;50.948;3.946;2022-12-11T11:02:50;30.73;;;16.83;;
31210;SDS011;17836;50.948;3.946;2022-12-11T11:05:16;30.00;;;17.90;;
31210;SDS011;17836;50.948;3.946;2022-12-11T11:07:50;30.38;;;16.73;;
31210;SDS011;17836;50.948;3.946;2022-12-11T11:10:26;38.67;;;20.05;;
31210;SDS011;17836;50.948;3.946;2022-12-11T11:12:54;35.88;;;19.27;;
31210;SDS011;17836;50.948;3.946;2022-12-11T11:15:29;34.42;;;20.27;;
31210;SDS011;17836;50.948;3.946;2022-12-11T11:18:11;31.17;;;17.48;;
31210;SDS011;17836;50.948;3.946;2022-12-11T11:20:42;33.28;;;17.42;;
31210;SDS011;17836;50.948;3.946;2022-12-11T11:23:11;34.70;;;19.07;;
31210;SDS011;17836;50.948;3.946;2022-12-11T11:25:38;30.10;;;16.67;;
31210;SDS011;17836;50.948;3.946;2022-12-11T11:28:05;29.17;;;16.35;;
31210;SDS011;17836;50.948;3.946;2022-12-11T11:30:34;26.23;;;15.40;;
31210;SDS011;17836;50.948;3.946;2022-12-11T11:33:02;25.23;;;15.60;;
31210;SDS011;17836;50.948;3.946;2022-12-11T11:35:29;24.20;;;15.13;;
31210;SDS011;17836;50.948;3.946;2022-12-11T11:40:28;30.63;;;16.48;;
31210;SDS011;17836;50.948;3.946;2022-12-11T11:43:12;36.67;;;18.88;;
31210;SDS011;17836;50.948;3.946;2022-12-11T11:45:59;30.23;;;16.80;;
31210;SDS011;17836;50.948;3.946;2022-12-11T11:50:54;32.88;;;18.25;;
31210;SDS011;17836;50.948;3.946;2022-12-11T11:53:26;27.88;;;17.77;;
31210;SDS011;17836;50.948;3.946;2022-12-11T11:58:40;32.35;;;18.38;;
31210;SDS011;17836;50.948;3.946;2022-12-11T12:01:12;31.85;;;18.30;;
31210;SDS011;17836;50.948;3.946;2022-12-11T12:03:39;38.63;;;20.13;;
31210;SDS011;17836;50.948;3.946;2022-12-11T12:06:10;37.65;;;20.98;;
31210;SDS011;17836;50.948;3.946;2022-12-11T12:08:51;38.00;;;19.92;;
31210;SDS011;17836;50.948;3.946;2022-12-11T12:11:41;31.10;;;18.35;;
31210;SDS011;17836;50.948;3.946;2022-12-11T12:14:18;29.10;;;16.63;;
31210;SDS011;17836;50.948;3.946;2022-12-11T12:19:26;26.15;;;17.85;;
31210;SDS011;17836;50.948;3.946;2022-12-11T12:21:52;28.55;;;17.40;;
31210;SDS011;17836;50.948;3.946;2022-12-11T12:27:11;31.60;;;17.48;;
31210;SDS011;17836;50.948;3.946;2022-12-11T12:37:44;25.40;;;16.10;;
31210;SDS011;17836;50.948;3.946;2022-12-11T12:47:40;32.97;;;19.07;;
31210;SDS011;17836;50.948;3.946;2022-12-11T12:50:09;29.88;;;18.95;;
31210;SDS011;17836;50.948;3.946;2022-12-11T12:52:37;26.55;;;17.60;;
31210;SDS011;17836;50.948;3.946;2022-12-11T12:55:04;30.77;;;17.58;;
31210;SDS011;17836;50.948;3.946;2022-12-11T13:00:08;31.42;;;18.75;;
31210;SDS011;17836;50.948;3.946;2022-12-11T13:02:37;29.92;;;17.75;;
31210;SDS011;17836;50.948;3.946;2022-12-11T13:05:16;31.75;;;17.83;;
31210;SDS011;17836;50.948;3.946;2022-12-11T13:07:47;27.10;;;16.98;;
31210;SDS011;17836;50.948;3.946;2022-12-11T13:10:23;25.97;;;17.63;;
31210;SDS011;17836;50.948;3.946;2022-12-11T13:12:50;28.48;;;18.35;;
31210;SDS011;17836;50.948;3.946;2022-12-11T13:18:01;27.23;;;17.27;;
31210;SDS011;17836;50.948;3.946;2022-12-11T13:20:27;43.83;;;22.83;;
31210;SDS011;17836;50.948;3.946;2022-12-11T13:25:44;33.13;;;20.23;;
31210;SDS011;17836;50.948;3.946;2022-12-11T13:28:29;26.67;;;16.92;;
31210;SDS011;17836;50.948;3.946;2022-12-11T13:31:00;24.35;;;16.27;;
31210;SDS011;17836;50.948;3.946;2022-12-11T13:33:26;25.85;;;15.05;;
31210;SDS011;17836;50.948;3.946;2022-12-11T13:38:34;18.95;;;14.15;;
31210;SDS011;17836;50.948;3.946;2022-12-11T13:41:00;22.42;;;15.25;;
31210;SDS011;17836;50.948;3.946;2022-12-11T13:43:30;19.10;;;13.55;;
31210;SDS011;17836;50.948;3.946;2022-12-11T13:45:58;25.00;;;15.30;;
31210;SDS011;17836;50.948;3.946;2022-12-11T13:48:28;20.25;;;13.57;;
31210;SDS011;17836;50.948;3.946;2022-12-11T13:50:56;33.60;;;15.32;;
31210;SDS011;17836;50.948;3.946;2022-12-11T13:53:22;19.92;;;13.65;;
31210;SDS011;17836;50.948;3.946;2022-12-11T13:55:55;23.25;;;14.73;;
31210;SDS011;17836;50.948;3.946;2022-12-11T13:58:21;22.38;;;14.93;;
31210;SDS011;17836;50.948;3.946;2022-12-11T14:03:38;20.27;;;13.65;;
31210;SDS011;17836;50.948;3.946;2022-12-11T14:06:04;21.10;;;14.05;;
31210;SDS011;17836;50.948;3.946;2022-12-11T14:08:34;20.60;;;13.57;;
31210;SDS011;17836;50.948;3.946;2022-12-11T14:10:59;20.00;;;13.88;;
31210;SDS011;17836;50.948;3.946;2022-12-11T14:13:26;20.88;;;13.68;;
31210;SDS011;17836;50.948;3.946;2022-12-11T14:15:54;23.13;;;15.10;;
31210;SDS011;17836;50.948;3.946;2022-12-11T14:18:20;21.88;;;14.82;;
31210;SDS011;17836;50.948;3.946;2022-12-11T14:20:51;25.40;;;15.15;;
31210;SDS011;17836;50.948;3.946;2022-12-11T14:23:19;19.67;;;14.18;;
31210;SDS011;17836;50.948;3.946;2022-12-11T14:28:37;19.90;;;13.93;;
31210;SDS011;17836;50.948;3.946;2022-12-11T14:31:02;31.13;;;17.60;;
31210;SDS011;17836;50.948;3.946;2022-12-11T14:33:34;34.15;;;20.92;;
31210;SDS011;17836;50.948;3.946;2022-12-11T14:36:01;36.10;;;21.33;;
31210;SDS011;17836;50.948;3.946;2022-12-11T14:41:21;27.00;;;17.15;;
31210;SDS011;17836;50.948;3.946;2022-12-11T14:43:48;26.40;;;17.17;;
31210;SDS011;17836;50.948;3.946;2022-12-11T14:46:17;26.02;;;17.65;;
31210;SDS011;17836;50.948;3.946;2022-12-11T14:48:47;25.65;;;16.80;;
31210;SDS011;17836;50.948;3.946;2022-12-11T14:51:14;26.15;;;16.02;;
31210;SDS011;17836;50.948;3.946;2022-12-11T14:53:42;21.98;;;14.63;;
31210;SDS011;17836;50.948;3.946;2022-12-11T14:56:12;22.38;;;14.80;;
31210;SDS011;17836;50.948;3.946;2022-12-11T14:58:53;21.42;;;15.20;;
31210;SDS011;17836;50.948;3.946;2022-12-11T15:01:26;24.35;;;15.13;;
31210;SDS011;17836;50.948;3.946;2022-12-11T15:04:05;22.35;;;14.88;;
31210;SDS011;17836;50.948;3.946;2022-12-11T15:06:34;23.23;;;14.75;;
31210;SDS011;17836;50.948;3.946;2022-12-11T15:11:58;20.83;;;14.23;;
31210;SDS011;17836;50.948;3.946;2022-12-11T15:14:30;25.58;;;14.88;;
31210;SDS011;17836;50.948;3.946;2022-12-11T15:16:57;20.65;;;14.45;;
31210;SDS011;17836;50.948;3.946;2022-12-11T15:19:24;27.27;;;16.88;;
31210;SDS011;17836;50.948;3.946;2022-12-11T15:21:50;26.10;;;16.02;;
31210;SDS011;17836;50.948;3.946;2022-12-11T15:24:23;26.00;;;16.08;;
31210;SDS011;17836;50.948;3.946;2022-12-11T15:26:50;31.25;;;17.55;;
31210;SDS011;17836;50.948;3.946;2022-12-11T15:29:24;26.67;;;17.73;;
31210;SDS011;17836;50.948;3.946;2022-12-11T15:34:34;27.05;;;16.45;;
31210;SDS011;17836;50.948;3.946;2022-12-11T15:37:16;26.35;;;16.95;;
31210;SDS011;17836;50.948;3.946;2022-12-11T15:39:41;33.05;;;20.77;;
31210;SDS011;17836;50.948;3.946;2022-12-11T15:42:06;40.55;;;26.55;;
31210;SDS011;17836;50.948;3.946;2022-12-11T15:44:31;35.42;;;21.15;;
31210;SDS011;17836;50.948;3.946;2022-12-11T15:46:59;32.72;;;19.65;;
31210;SDS011;17836;50.948;3.946;2022-12-11T15:49:24;25.77;;;18.13;;
31210;SDS011;17836;50.948;3.946;2022-12-11T15:51:49;30.30;;;19.20;;
31210;SDS011;17836;50.948;3.946;2022-12-11T15:54:14;28.00;;;17.15;;